Aeroporto :
LOGIN :

Iscrizione | Disclaimer

   EN    FR    IT 

 










Sommario :    VFR   VFR Marginale   IFR   IFR Intensivo   IFR Molto Intensivo
Visibilità : 
Base nubi : 
>= 8 km
>= 3000ft
5 / 8 km
1000 / 3000 ft
1500m / 5 km
500 / 1000 ft
800 / 1500m
200 / 500 ft
< 800m
< 200 ft
Simboli :   Temporali  Nebbia  Neve Forte  Precipitazioni Forti  Vento > 20 kt
SIGMETs :   Varie  Temporali  Ghiacco  Turbolenza  Onda orograficha  Ceneri Vulcaniche






- Altitudine del aeroporto : 267 ft


EGDR - Culdrose Navy

ULTIMO METAR :
  • 212050Z 14008KT 9999 -SHRA FEW018TCU SCT050 08/06 Q0992 BLU

METARs OBSOLETI :
  • 211950Z AUTO 15010KT 5000 // BKN018/// SCT032/// 07/06 Q0992
  • 211850Z AUTO 13009KT 9999 // FEW024/// SCT050/// BKN120/// 08/06 Q0993

TAF TAF EGDR
Valido dal 21 a 15 ore il 22 a 00 ore UTC


211331Z 2115/2124 18010KT 9999 FEW020 SCT030
TEMPO 2115/2124 4000 SHRA SCT010 BKN018TCU
PROB30
TEMPO 2115/2124 3000 +SHRA TSGS SCT006 BKN016CB



MetMap, La meteo Aeronautica in un colpo d'occhio ! - Copyright ORBIFLY Dicembre 2007 - Disclaimer

ORBIFLY MET'MAP TEAM :

Programmazione e sviluppo : Alexandra Zaïnal
Concezione e sviluppo : Baudouin d'Aumeries
Co-Programmazione e sviluppo : Marc-Olivier Méhu
Supporto tecnico e logistico : Manuel Goepfert
Aiuto per la traduzione : Arnaldo La Scala

Contatto : metmap@orbifly.com




FONTI E CREDITI :

   NOAA